LOT233 LEGE-DNMM
Flight info
| Callsign | LOT233 |
|---|---|
| Flight time | N/A |
| Altitude | 39000 |
| Route | BGR N855 GENIO N859 MOGIL UB31 ZEM/N0454F380 UZ333 JALFA/N0459F400 UZ333 KAHIL UB726 GHA UM114 LITAK/N0467F410 UM114 NASTO/N0467F400 UM114 KIGRA UB731 BUDSI BUDSI1N |
| Aircraft | A346/H-SDE2E3FGHIJ3J4J5M1RWXY/LB1D1 |
Departure
| Time | 2026-04-22 16:40 |
|---|---|
| Airport | Girona-Costa Brava Airport (LEGE) |
Arrival
| Time | N/A |
|---|---|
| Airport | Murtala Muhammed International Airport (DNMM) |
| Time | Latitude | Longitude | Altitude | Speed | Heading |
|---|---|---|---|---|---|
| 2026-04-22 16:16 | 41.89898 | 2.76469 | 436 ft | 0 kts | 106° |
| 2026-04-22 16:31 | 41.89900 | 2.76457 | 436 ft | 2 kts | 104° |
| 2026-04-22 16:31 | 41.89904 | 2.76437 | 436 ft | 2 kts | 105° |
| 2026-04-22 16:31 | 41.89908 | 2.76417 | 436 ft | 2 kts | 102° |
| 2026-04-22 16:31 | 41.89910 | 2.76398 | 436 ft | 2 kts | 91° |
| 2026-04-22 16:32 | 41.89909 | 2.76378 | 436 ft | 2 kts | 82° |
| 2026-04-22 16:32 | 41.89906 | 2.76358 | 436 ft | 2 kts | 75° |
| 2026-04-22 16:32 | 41.89902 | 2.76339 | 435 ft | 2 kts | 73° |
| 2026-04-22 16:32 | 41.89898 | 2.76320 | 435 ft | 2 kts | 75° |
| 2026-04-22 16:33 | 41.89895 | 2.76300 | 435 ft | 2 kts | 93° |
| 2026-04-22 16:33 | 41.89898 | 2.76281 | 435 ft | 2 kts | 109° |
| 2026-04-22 16:33 | 41.89904 | 2.76263 | 435 ft | 2 kts | 124° |
| 2026-04-22 16:33 | 41.89914 | 2.76248 | 436 ft | 2 kts | 140° |
| 2026-04-22 16:34 | 41.89926 | 2.76237 | 436 ft | 2 kts | 155° |
| 2026-04-22 16:34 | 41.89940 | 2.76231 | 436 ft | 2 kts | 171° |
| 2026-04-22 16:34 | 41.89954 | 2.76230 | 436 ft | 2 kts | 186° |
| 2026-04-22 16:34 | 41.89963 | 2.76232 | 436 ft | 1 kts | 195° |
| 2026-04-22 16:35 | 41.89966 | 2.76233 | 437 ft | 0 kts | 195° |
| 2026-04-22 16:37 | 41.89963 | 2.76232 | 436 ft | 2 kts | 195° |
| 2026-04-22 16:37 | 41.89924 | 2.76218 | 436 ft | 9 kts | 194° |
| 2026-04-22 16:37 | 41.89847 | 2.76192 | 434 ft | 13 kts | 194° |
| 2026-04-22 16:38 | 41.89738 | 2.76155 | 431 ft | 18 kts | 194° |
| 2026-04-22 16:38 | 41.89607 | 2.76105 | 429 ft | 16 kts | 207° |
| 2026-04-22 16:38 | 41.89533 | 2.75982 | 426 ft | 18 kts | 246° |
| 2026-04-22 16:38 | 41.89503 | 2.75879 | 425 ft | 6 kts | 258° |
| 2026-04-22 16:39 | 41.89514 | 2.75846 | 425 ft | 2 kts | 346° |
| 2026-04-22 16:39 | 41.89550 | 2.75850 | 426 ft | 6 kts | 12° |
| 2026-04-22 16:39 | 41.89595 | 2.75866 | 426 ft | 4 kts | 16° |
| 2026-04-22 16:39 | 41.89632 | 2.75880 | 427 ft | 6 kts | 16° |
| 2026-04-22 16:40 | 41.89883 | 2.75977 | 434 ft | 82 kts | 16° |
| 2026-04-22 16:40 | 41.90701 | 2.76286 | 460 ft | 158 kts | 15° |
| 2026-04-22 16:40 | 41.92926 | 2.76989 | 2160 ft | 164 kts | 14° |
| 2026-04-22 16:41 | 41.93954 | 2.77494 | 3055 ft | 163 kts | 37° |
| 2026-04-22 16:41 | 41.94633 | 2.78665 | 3907 ft | 165 kts | 64° |
| 2026-04-22 16:41 | 41.94891 | 2.80118 | 4645 ft | 159 kts | 87° |
| 2026-04-22 16:41 | 41.94744 | 2.81548 | 5173 ft | 160 kts | 105° |
| 2026-04-22 16:42 | 41.94436 | 2.83050 | 5500 ft | 173 kts | 96° |
| 2026-04-22 16:42 | 41.94368 | 2.84712 | 5813 ft | 188 kts | 89° |
| 2026-04-22 16:42 | 41.94357 | 2.86560 | 6157 ft | 205 kts | 88° |
| 2026-04-22 16:42 | 41.94365 | 2.88527 | 6619 ft | 217 kts | 88° |
| 2026-04-22 16:43 | 41.94375 | 2.90557 | 7254 ft | 222 kts | 88° |
| 2026-04-22 16:43 | 41.94385 | 2.92625 | 7951 ft | 225 kts | 88° |
| 2026-04-22 16:43 | 41.94398 | 2.94737 | 8551 ft | 233 kts | 87° |
| 2026-04-22 16:43 | 41.94430 | 2.96985 | 9016 ft | 251 kts | 87° |
| 2026-04-22 16:44 | 41.94472 | 2.99409 | 9492 ft | 269 kts | 87° |
| 2026-04-22 16:44 | 41.94515 | 3.02004 | 9996 ft | 287 kts | 87° |
| 2026-04-22 16:44 | 41.94535 | 3.04751 | 10486 ft | 306 kts | 92° |
| 2026-04-22 16:44 | 41.93926 | 3.07527 | 10915 ft | 326 kts | 123° |
| 2026-04-22 16:45 | 41.92296 | 3.09713 | 11367 ft | 338 kts | 153° |
| 2026-04-22 16:45 | 41.90037 | 3.10707 | 11824 ft | 348 kts | 175° |
| 2026-04-22 16:45 | 41.87614 | 3.11201 | 12283 ft | 367 kts | 173° |
| 2026-04-22 16:45 | 41.85045 | 3.11927 | 12746 ft | 385 kts | 169° |
| 2026-04-22 16:46 | 41.82439 | 3.12902 | 13475 ft | 395 kts | 165° |
| 2026-04-22 16:46 | 41.79816 | 3.14036 | 14351 ft | 399 kts | 163° |
| 2026-04-22 16:46 | 41.77178 | 3.15253 | 15192 ft | 403 kts | 163° |
| 2026-04-22 16:46 | 41.74531 | 3.16502 | 15982 ft | 408 kts | 163° |
| 2026-04-22 16:47 | 41.71871 | 3.17761 | 16752 ft | 413 kts | 163° |
| 2026-04-22 16:47 | 41.69114 | 3.18853 | 17517 ft | 415 kts | 170° |
| 2026-04-22 16:47 | 41.66246 | 3.19432 | 18263 ft | 416 kts | 178° |
| 2026-04-22 16:47 | 41.63366 | 3.19492 | 18973 ft | 419 kts | 185° |
| 2026-04-22 16:48 | 41.60460 | 3.19347 | 19661 ft | 423 kts | 186° |
| 2026-04-22 16:48 | 41.57490 | 3.19166 | 20354 ft | 428 kts | 186° |
| 2026-04-22 16:48 | 41.54539 | 3.18998 | 21026 ft | 433 kts | 185° |
| 2026-04-22 16:48 | 41.51500 | 3.18842 | 21699 ft | 437 kts | 185° |
| 2026-04-22 16:49 | 41.48470 | 3.18696 | 22341 ft | 442 kts | 185° |
| 2026-04-22 16:49 | 41.45383 | 3.18552 | 22965 ft | 447 kts | 185° |
| 2026-04-22 16:49 | 41.42251 | 3.18404 | 23579 ft | 451 kts | 185° |
| 2026-04-22 16:49 | 41.39118 | 3.18256 | 24197 ft | 455 kts | 185° |
| 2026-04-22 16:50 | 41.35963 | 3.18105 | 24794 ft | 460 kts | 185° |
| 2026-04-22 16:50 | 41.32761 | 3.17955 | 25378 ft | 464 kts | 185° |
| 2026-04-22 16:50 | 41.29494 | 3.17799 | 25962 ft | 468 kts | 185° |
| 2026-04-22 16:50 | 41.26261 | 3.17648 | 26516 ft | 472 kts | 185° |
| 2026-04-22 16:51 | 41.22958 | 3.17491 | 27071 ft | 475 kts | 185° |
| 2026-04-22 16:51 | 41.19647 | 3.17335 | 27622 ft | 479 kts | 185° |
| 2026-04-22 16:51 | 41.16314 | 3.17180 | 28156 ft | 483 kts | 185° |
| 2026-04-22 16:51 | 41.12936 | 3.17022 | 28659 ft | 487 kts | 184° |
| 2026-04-22 16:52 | 41.09559 | 3.16864 | 29175 ft | 490 kts | 184° |
| 2026-04-22 16:52 | 41.06139 | 3.16705 | 29876 ft | 489 kts | 184° |
| 2026-04-22 16:52 | 41.02785 | 3.16548 | 30648 ft | 486 kts | 184° |
| 2026-04-22 16:52 | 40.99416 | 3.16393 | 31362 ft | 483 kts | 184° |
| 2026-04-22 16:53 | 40.96083 | 3.16238 | 31975 ft | 483 kts | 184° |
| 2026-04-22 16:53 | 40.92709 | 3.16080 | 32571 ft | 482 kts | 185° |
| 2026-04-22 16:53 | 40.89325 | 3.15922 | 33176 ft | 481 kts | 185° |
| 2026-04-22 16:53 | 40.85990 | 3.15765 | 33741 ft | 480 kts | 185° |
| 2026-04-22 16:54 | 40.82664 | 3.15612 | 34271 ft | 480 kts | 185° |
| 2026-04-22 16:54 | 40.79335 | 3.15459 | 34871 ft | 479 kts | 185° |
| 2026-04-22 16:54 | 40.76006 | 3.15305 | 35479 ft | 478 kts | 185° |
| 2026-04-22 16:54 | 40.72709 | 3.15152 | 36032 ft | 477 kts | 185° |
| 2026-04-22 16:55 | 40.69419 | 3.14999 | 36557 ft | 476 kts | 184° |
| 2026-04-22 16:55 | 40.66126 | 3.14847 | 37039 ft | 475 kts | 184° |
| 2026-04-22 16:55 | 40.62817 | 3.14694 | 37483 ft | 474 kts | 184° |
| 2026-04-22 16:55 | 40.59495 | 3.14542 | 37829 ft | 476 kts | 184° |
| 2026-04-22 16:56 | 40.56222 | 3.14389 | 38080 ft | 478 kts | 184° |
| 2026-04-22 16:56 | 40.52900 | 3.14232 | 38340 ft | 480 kts | 184° |
| 2026-04-22 16:56 | 40.49526 | 3.14074 | 38598 ft | 482 kts | 184° |
| 2026-04-22 16:56 | 40.46167 | 3.13920 | 38874 ft | 483 kts | 184° |
| 2026-04-22 16:57 | 40.42787 | 3.13766 | 38963 ft | 488 kts | 184° |
| 2026-04-22 16:57 | 40.35912 | 3.13450 | 38968 ft | 500 kts | 184° |
| 2026-04-22 16:58 | 40.28914 | 3.13131 | 38957 ft | 505 kts | 184° |
| 2026-04-22 16:58 | 40.21896 | 3.12813 | 38963 ft | 505 kts | 184° |
| 2026-04-22 16:59 | 40.14909 | 3.12494 | 38963 ft | 505 kts | 184° |
| 2026-04-22 16:59 | 40.07883 | 3.12173 | 38960 ft | 505 kts | 184° |
| 2026-04-22 17:00 | 40.00850 | 3.11852 | 38950 ft | 505 kts | 184° |
| 2026-04-22 17:00 | 39.90321 | 3.11528 | 38957 ft | 505 kts | 181° |
| 2026-04-22 17:01 | 39.83274 | 3.11680 | 38953 ft | 506 kts | 181° |
| 2026-04-22 17:01 | 39.76244 | 3.11827 | 38963 ft | 506 kts | 181° |
| 2026-04-22 17:02 | 39.69186 | 3.11973 | 38954 ft | 506 kts | 181° |
| 2026-04-22 17:02 | 39.62151 | 3.12116 | 38965 ft | 505 kts | 181° |
| 2026-04-22 17:03 | 39.55106 | 3.12260 | 38961 ft | 506 kts | 181° |
| 2026-04-22 17:03 | 39.48079 | 3.12403 | 38970 ft | 505 kts | 181° |
| 2026-04-22 17:04 | 39.41061 | 3.12546 | 38963 ft | 505 kts | 181° |
| 2026-04-22 17:04 | 39.34030 | 3.12688 | 38966 ft | 505 kts | 181° |
| 2026-04-22 17:05 | 39.27003 | 3.12829 | 38953 ft | 505 kts | 181° |
| 2026-04-22 17:05 | 39.19984 | 3.12970 | 38958 ft | 505 kts | 181° |
| 2026-04-22 17:06 | 39.12938 | 3.13111 | 38959 ft | 505 kts | 181° |
| 2026-04-22 17:06 | 39.05889 | 3.13256 | 38952 ft | 505 kts | 181° |
| 2026-04-22 17:07 | 38.98885 | 3.13402 | 38963 ft | 505 kts | 181° |
| 2026-04-22 17:07 | 38.91849 | 3.13548 | 38962 ft | 505 kts | 181° |
| 2026-04-22 17:08 | 38.84815 | 3.13690 | 38960 ft | 504 kts | 181° |
| 2026-04-22 17:08 | 38.77808 | 3.13830 | 38966 ft | 504 kts | 181° |
| 2026-04-22 17:09 | 38.70828 | 3.13969 | 38963 ft | 504 kts | 181° |
| 2026-04-22 17:09 | 38.63825 | 3.14107 | 38963 ft | 504 kts | 181° |
| 2026-04-22 17:10 | 38.56771 | 3.14249 | 38965 ft | 504 kts | 181° |
| 2026-04-22 17:10 | 38.49755 | 3.14391 | 38963 ft | 503 kts | 181° |
| 2026-04-22 17:11 | 38.42784 | 3.14531 | 38970 ft | 504 kts | 181° |
| 2026-04-22 17:11 | 38.35770 | 3.14688 | 38962 ft | 503 kts | 180° |
| 2026-04-22 17:12 | 38.28794 | 3.15479 | 38961 ft | 505 kts | 173° |
| 2026-04-22 17:12 | 38.21942 | 3.17238 | 38963 ft | 506 kts | 166° |
| 2026-04-22 17:13 | 38.15105 | 3.19561 | 38964 ft | 506 kts | 166° |
| 2026-04-22 17:13 | 38.08298 | 3.21594 | 38970 ft | 506 kts | 168° |
| 2026-04-22 17:14 | 38.01389 | 3.23529 | 38961 ft | 505 kts | 168° |
| 2026-04-22 17:14 | 37.94540 | 3.25444 | 38960 ft | 505 kts | 168° |
| 2026-04-22 17:15 | 37.87662 | 3.27364 | 38963 ft | 506 kts | 168° |
| 2026-04-22 17:15 | 37.80795 | 3.29278 | 38959 ft | 506 kts | 168° |
| 2026-04-22 17:16 | 37.73918 | 3.31192 | 38961 ft | 505 kts | 168° |
| 2026-04-22 17:16 | 37.67054 | 3.33098 | 38959 ft | 506 kts | 168° |
| 2026-04-22 17:17 | 37.60181 | 3.35003 | 38961 ft | 506 kts | 168° |
| 2026-04-22 17:17 | 37.53295 | 3.36908 | 38958 ft | 506 kts | 168° |
| 2026-04-22 17:18 | 37.46449 | 3.38798 | 38960 ft | 506 kts | 168° |
| 2026-04-22 17:18 | 37.39573 | 3.40693 | 38959 ft | 506 kts | 168° |
| 2026-04-22 17:19 | 37.25832 | 3.44470 | 38958 ft | 506 kts | 168° |
| 2026-04-22 17:20 | 37.12112 | 3.48227 | 38958 ft | 506 kts | 168° |
| 2026-04-22 17:21 | 37.01781 | 3.51045 | 38957 ft | 506 kts | 168° |
| 2026-04-22 17:22 | 36.91466 | 3.53853 | 38958 ft | 505 kts | 168° |
| 2026-04-22 17:23 | 36.81141 | 3.56649 | 38958 ft | 505 kts | 169° |
| 2026-04-22 17:23 | 36.70762 | 3.58636 | 38964 ft | 504 kts | 173° |
| 2026-04-22 17:24 | 36.63818 | 3.59838 | 38970 ft | 504 kts | 173° |
| 2026-04-22 17:24 | 36.56843 | 3.61046 | 38982 ft | 503 kts | 173° |
| 2026-04-22 17:25 | 36.49837 | 3.62261 | 38997 ft | 503 kts | 173° |
| 2026-04-22 17:25 | 36.42923 | 3.63458 | 39009 ft | 503 kts | 173° |
| 2026-04-22 17:26 | 36.35939 | 3.64663 | 39020 ft | 503 kts | 173° |
| 2026-04-22 17:26 | 36.28985 | 3.65861 | 39031 ft | 503 kts | 174° |
| 2026-04-22 17:27 | 36.21993 | 3.67064 | 39043 ft | 502 kts | 173° |
| 2026-04-22 17:27 | 36.15078 | 3.68250 | 39053 ft | 502 kts | 174° |
| 2026-04-22 17:28 | 36.08126 | 3.69442 | 39059 ft | 501 kts | 173° |
| 2026-04-22 17:28 | 36.01167 | 3.70633 | 39063 ft | 501 kts | 174° |
| 2026-04-22 17:29 | 35.94263 | 3.71812 | 39060 ft | 500 kts | 174° |
| 2026-04-22 17:29 | 35.87385 | 3.72985 | 39051 ft | 500 kts | 174° |
| 2026-04-22 17:30 | 35.80457 | 3.74162 | 39046 ft | 500 kts | 174° |
| 2026-04-22 17:30 | 35.73591 | 3.75328 | 39039 ft | 500 kts | 174° |
| 2026-04-22 17:31 | 35.66633 | 3.76508 | 39042 ft | 499 kts | 174° |
| 2026-04-22 17:31 | 35.59768 | 3.77673 | 39043 ft | 499 kts | 174° |
| 2026-04-22 17:32 | 35.52898 | 3.78837 | 39044 ft | 499 kts | 174° |
| 2026-04-22 17:32 | 35.46037 | 3.79997 | 39056 ft | 498 kts | 174° |
| 2026-04-22 17:33 | 35.39174 | 3.81153 | 39055 ft | 498 kts | 174° |
| 2026-04-22 17:33 | 35.32302 | 3.82311 | 39053 ft | 497 kts | 174° |
| 2026-04-22 17:34 | 35.25432 | 3.83465 | 39063 ft | 497 kts | 174° |
| 2026-04-22 17:34 | 35.18560 | 3.84617 | 39077 ft | 497 kts | 174° |
| 2026-04-22 17:35 | 35.11614 | 3.85780 | 39083 ft | 497 kts | 174° |
| 2026-04-22 17:35 | 35.04733 | 3.86930 | 39094 ft | 496 kts | 174° |
| 2026-04-22 17:36 | 34.97862 | 3.88077 | 39108 ft | 496 kts | 174° |
| 2026-04-22 17:36 | 34.91049 | 3.89212 | 39114 ft | 495 kts | 174° |
| 2026-04-22 17:37 | 34.84182 | 3.90354 | 39115 ft | 495 kts | 174° |
| 2026-04-22 17:37 | 34.77288 | 3.91497 | 39110 ft | 495 kts | 174° |
| 2026-04-22 17:38 | 34.70402 | 3.92639 | 39116 ft | 495 kts | 174° |
| 2026-04-22 17:38 | 34.63567 | 3.93771 | 39113 ft | 494 kts | 174° |
| 2026-04-22 17:39 | 34.56744 | 3.94898 | 39105 ft | 494 kts | 174° |
| 2026-04-22 17:40 | 34.46517 | 3.96583 | 39091 ft | 493 kts | 174° |
| 2026-04-22 17:40 | 34.39702 | 3.97703 | 39076 ft | 493 kts | 174° |
| 2026-04-22 17:41 | 34.32957 | 3.98811 | 39055 ft | 493 kts | 174° |
| 2026-04-22 17:41 | 34.26137 | 3.99928 | 39028 ft | 493 kts | 174° |
| 2026-04-22 17:42 | 34.19326 | 4.01041 | 39013 ft | 492 kts | 174° |
| 2026-04-22 17:42 | 34.12558 | 4.01882 | 39003 ft | 490 kts | 179° |
| 2026-04-22 17:43 | 34.05764 | 4.01875 | 38999 ft | 487 kts | 186° |
| 2026-04-22 17:43 | 33.98989 | 4.01035 | 38995 ft | 485 kts | 190° |
| 2026-04-22 17:44 | 33.92252 | 4.00026 | 38983 ft | 485 kts | 190° |
| 2026-04-22 17:44 | 33.85537 | 3.99031 | 39002 ft | 486 kts | 189° |
| 2026-04-22 17:45 | 33.78789 | 3.98036 | 39001 ft | 485 kts | 189° |
| 2026-04-22 17:45 | 33.72124 | 3.97058 | 38999 ft | 486 kts | 189° |
| 2026-04-22 17:46 | 33.65322 | 3.96061 | 39006 ft | 486 kts | 189° |
| 2026-04-22 17:46 | 33.58581 | 3.95075 | 39005 ft | 486 kts | 189° |
| 2026-04-22 17:47 | 33.51843 | 3.94089 | 39000 ft | 486 kts | 189° |
| 2026-04-22 17:47 | 33.45149 | 3.93113 | 39004 ft | 486 kts | 189° |
| 2026-04-22 17:48 | 33.38415 | 3.92133 | 38996 ft | 486 kts | 189° |
| 2026-04-22 17:48 | 33.31699 | 3.91156 | 38987 ft | 487 kts | 189° |
| 2026-04-22 17:49 | 33.24932 | 3.90172 | 38993 ft | 487 kts | 189° |
| 2026-04-22 17:49 | 33.18242 | 3.89201 | 38983 ft | 487 kts | 189° |
| 2026-04-22 17:50 | 33.11505 | 3.88224 | 38976 ft | 487 kts | 189° |
| 2026-04-22 17:50 | 33.04745 | 3.87245 | 38983 ft | 487 kts | 189° |
| 2026-04-22 17:51 | 32.97966 | 3.86266 | 38971 ft | 487 kts | 189° |
| 2026-04-22 17:51 | 32.91221 | 3.85291 | 38972 ft | 487 kts | 189° |
| 2026-04-22 17:52 | 32.84474 | 3.84314 | 38917 ft | 487 kts | 189° |
| 2026-04-22 17:52 | 32.77693 | 3.83334 | 38960 ft | 487 kts | 189° |
| 2026-04-22 17:53 | 32.70926 | 3.82354 | 38968 ft | 488 kts | 189° |
| 2026-04-22 17:53 | 32.64218 | 3.81386 | 38964 ft | 487 kts | 189° |
| 2026-04-22 17:54 | 32.57429 | 3.80407 | 38971 ft | 487 kts | 189° |
| 2026-04-22 17:54 | 32.50654 | 3.79432 | 38964 ft | 487 kts | 190° |
| 2026-04-22 17:55 | 32.43904 | 3.78460 | 38966 ft | 488 kts | 190° |
| 2026-04-22 17:55 | 32.37141 | 3.77820 | 38964 ft | 489 kts | 184° |
| 2026-04-22 17:56 | 32.30289 | 3.77787 | 38958 ft | 490 kts | 183° |
| 2026-04-22 17:56 | 32.23472 | 3.77786 | 38967 ft | 490 kts | 182° |
| 2026-04-22 17:57 | 32.16640 | 3.77808 | 38954 ft | 490 kts | 182° |
| 2026-04-22 17:57 | 32.09795 | 3.77808 | 38961 ft | 490 kts | 182° |
| 2026-04-22 17:58 | 32.02909 | 3.77808 | 38957 ft | 489 kts | 182° |
| 2026-04-22 17:58 | 31.96088 | 3.77808 | 38938 ft | 489 kts | 183° |
| 2026-04-22 17:59 | 31.89297 | 3.77807 | 38956 ft | 489 kts | 183° |
| 2026-04-22 17:59 | 31.82482 | 3.77807 | 38948 ft | 489 kts | 183° |
| 2026-04-22 18:00 | 31.75667 | 3.77807 | 38951 ft | 489 kts | 182° |
| 2026-04-22 18:00 | 31.68829 | 3.77806 | 38937 ft | 489 kts | 182° |
| 2026-04-22 18:01 | 31.62001 | 3.77806 | 38942 ft | 489 kts | 183° |
| 2026-04-22 18:01 | 31.55213 | 3.77807 | 38941 ft | 489 kts | 182° |
| 2026-04-22 18:02 | 31.48375 | 3.77808 | 38938 ft | 489 kts | 182° |
| 2026-04-22 18:02 | 31.41596 | 3.77808 | 38972 ft | 488 kts | 182° |
| 2026-04-22 18:03 | 31.34767 | 3.77809 | 38940 ft | 488 kts | 183° |
| 2026-04-22 18:03 | 31.27965 | 3.77810 | 38934 ft | 487 kts | 183° |
| 2026-04-22 18:04 | 31.21149 | 3.77811 | 38933 ft | 488 kts | 182° |
| 2026-04-22 18:04 | 31.14357 | 3.77812 | 38928 ft | 488 kts | 183° |
| 2026-04-22 18:05 | 31.07572 | 3.77812 | 38929 ft | 488 kts | 183° |
| 2026-04-22 18:05 | 31.00746 | 3.77812 | 38927 ft | 487 kts | 183° |
| 2026-04-22 18:06 | 30.93949 | 3.77813 | 38922 ft | 487 kts | 183° |
| 2026-04-22 18:06 | 30.87178 | 3.77813 | 38919 ft | 487 kts | 183° |
| 2026-04-22 18:07 | 30.80422 | 3.77813 | 38918 ft | 487 kts | 183° |
| 2026-04-22 18:07 | 30.73618 | 3.77814 | 38920 ft | 487 kts | 183° |
| 2026-04-22 18:08 | 30.66827 | 3.77814 | 38915 ft | 487 kts | 183° |
| 2026-04-22 18:08 | 30.60024 | 3.77813 | 38912 ft | 487 kts | 183° |
| 2026-04-22 18:09 | 30.53238 | 3.77812 | 38909 ft | 487 kts | 183° |
| 2026-04-22 18:09 | 30.46445 | 3.77812 | 38907 ft | 487 kts | 183° |
| 2026-04-22 18:10 | 30.39637 | 3.77809 | 38909 ft | 486 kts | 183° |
| 2026-04-22 18:10 | 30.32778 | 3.77808 | 38902 ft | 486 kts | 183° |
| 2026-04-22 18:11 | 30.26010 | 3.77804 | 38904 ft | 486 kts | 183° |
| 2026-04-22 18:11 | 30.19218 | 3.77801 | 38903 ft | 487 kts | 183° |
| 2026-04-22 18:12 | 30.12437 | 3.77796 | 38905 ft | 487 kts | 183° |
| 2026-04-22 18:12 | 30.05607 | 3.77741 | 38901 ft | 485 kts | 185° |
| 2026-04-22 18:13 | 29.98865 | 3.77054 | 38900 ft | 482 kts | 192° |
| 2026-04-22 18:13 | 29.92194 | 3.75883 | 38897 ft | 482 kts | 192° |
| 2026-04-22 18:14 | 29.85505 | 3.74703 | 38899 ft | 482 kts | 192° |
| 2026-04-22 18:14 | 29.78842 | 3.73533 | 38903 ft | 482 kts | 192° |
| 2026-04-22 18:15 | 29.72223 | 3.72374 | 38895 ft | 482 kts | 192° |
| 2026-04-22 18:15 | 29.65567 | 3.71210 | 38902 ft | 482 kts | 192° |
| 2026-04-22 18:16 | 29.58965 | 3.70056 | 38905 ft | 482 kts | 192° |
| 2026-04-22 18:16 | 29.52306 | 3.68896 | 38903 ft | 483 kts | 192° |
| 2026-04-22 18:17 | 29.45652 | 3.67738 | 38909 ft | 482 kts | 192° |
| 2026-04-22 18:17 | 29.39030 | 3.66585 | 38915 ft | 482 kts | 192° |
| 2026-04-22 18:18 | 29.32364 | 3.65427 | 38917 ft | 482 kts | 192° |
| 2026-04-22 18:18 | 29.25765 | 3.64282 | 38932 ft | 482 kts | 192° |
| 2026-04-22 18:19 | 29.19113 | 3.63130 | 38921 ft | 483 kts | 193° |
| 2026-04-22 18:19 | 29.12415 | 3.61971 | 38942 ft | 483 kts | 193° |
| 2026-04-22 18:20 | 29.05776 | 3.60823 | 38943 ft | 483 kts | 193° |
| 2026-04-22 18:20 | 28.99125 | 3.59674 | 38942 ft | 483 kts | 193° |
| 2026-04-22 18:21 | 28.92403 | 3.58517 | 38939 ft | 482 kts | 193° |
| 2026-04-22 18:21 | 28.85715 | 3.57364 | 38933 ft | 483 kts | 193° |
| 2026-04-22 18:22 | 28.79094 | 3.56225 | 38927 ft | 484 kts | 193° |
| 2026-04-22 18:22 | 28.72421 | 3.55079 | 38933 ft | 484 kts | 193° |
| 2026-04-22 18:23 | 28.65740 | 3.53931 | 38923 ft | 484 kts | 193° |
| 2026-04-22 18:23 | 28.59078 | 3.52787 | 38929 ft | 484 kts | 193° |
| 2026-04-22 18:24 | 28.49006 | 3.51386 | 38919 ft | 489 kts | 188° |
| 2026-04-22 18:25 | 28.38699 | 3.51329 | 38928 ft | 492 kts | 184° |
| 2026-04-22 18:25 | 28.31873 | 3.51395 | 38921 ft | 492 kts | 184° |
| 2026-04-22 18:26 | 28.21550 | 3.51491 | 38925 ft | 493 kts | 184° |
| 2026-04-22 18:26 | 28.14676 | 3.51553 | 38935 ft | 493 kts | 184° |
| 2026-04-22 18:27 | 28.07781 | 3.51615 | 38928 ft | 494 kts | 185° |
| 2026-04-22 18:27 | 28.00921 | 3.51676 | 38923 ft | 495 kts | 184° |
| 2026-04-22 18:28 | 27.93995 | 3.51738 | 38918 ft | 494 kts | 185° |
| 2026-04-22 18:28 | 27.87101 | 3.51798 | 38917 ft | 495 kts | 185° |
| 2026-04-22 18:29 | 27.80212 | 3.51858 | 38901 ft | 496 kts | 185° |
| 2026-04-22 18:29 | 27.73298 | 3.51922 | 38899 ft | 497 kts | 185° |
| 2026-04-22 18:30 | 27.62956 | 3.52013 | 38886 ft | 497 kts | 185° |
| 2026-04-22 18:31 | 27.55992 | 3.52073 | 38890 ft | 497 kts | 185° |
| 2026-04-22 18:31 | 27.49028 | 3.52135 | 38878 ft | 498 kts | 185° |
| 2026-04-22 18:32 | 27.42041 | 3.52197 | 38861 ft | 500 kts | 185° |
| 2026-04-22 18:32 | 27.35052 | 3.52258 | 38874 ft | 500 kts | 185° |
| 2026-04-22 18:33 | 27.28057 | 3.52319 | 38860 ft | 501 kts | 186° |
| 2026-04-22 18:33 | 27.21057 | 3.52380 | 38859 ft | 503 kts | 186° |
| 2026-04-22 18:34 | 27.14048 | 3.52442 | 38871 ft | 503 kts | 186° |
| 2026-04-22 18:34 | 27.07093 | 3.52501 | 38873 ft | 503 kts | 186° |
| 2026-04-22 18:35 | 27.00030 | 3.52564 | 38871 ft | 505 kts | 186° |
| 2026-04-22 18:35 | 26.92954 | 3.52624 | 38873 ft | 507 kts | 186° |
| 2026-04-22 18:36 | 26.85880 | 3.52689 | 38871 ft | 506 kts | 186° |
| 2026-04-22 18:36 | 26.78796 | 3.52747 | 38869 ft | 505 kts | 186° |
| 2026-04-22 18:37 | 26.71738 | 3.52810 | 38856 ft | 507 kts | 186° |
| 2026-04-22 18:37 | 26.64675 | 3.52872 | 38867 ft | 507 kts | 186° |
| 2026-04-22 18:38 | 26.57626 | 3.52932 | 38881 ft | 508 kts | 186° |
| 2026-04-22 18:38 | 26.50530 | 3.52992 | 38869 ft | 509 kts | 187° |
| 2026-04-22 18:39 | 26.39856 | 3.53086 | 38886 ft | 508 kts | 187° |
| 2026-04-22 18:39 | 26.32762 | 3.53146 | 38878 ft | 509 kts | 187° |
| 2026-04-22 18:40 | 26.25670 | 3.53206 | 38873 ft | 512 kts | 187° |
| 2026-04-22 18:40 | 26.18534 | 3.53269 | 38879 ft | 509 kts | 187° |
| 2026-04-22 18:41 | 26.11412 | 3.53330 | 38888 ft | 511 kts | 187° |
| 2026-04-22 18:41 | 26.04309 | 3.53391 | 38875 ft | 512 kts | 187° |
| 2026-04-22 18:42 | 25.97204 | 3.53452 | 38888 ft | 511 kts | 187° |
| 2026-04-22 18:42 | 25.90050 | 3.53513 | 38908 ft | 513 kts | 188° |
| 2026-04-22 18:43 | 25.82930 | 3.53574 | 38912 ft | 513 kts | 188° |
| 2026-04-22 18:43 | 25.75778 | 3.53637 | 38940 ft | 513 kts | 188° |
| 2026-04-22 18:44 | 25.68626 | 3.53695 | 38946 ft | 514 kts | 188° |
| 2026-04-22 18:44 | 25.61469 | 3.53758 | 38923 ft | 513 kts | 188° |
| 2026-04-22 18:45 | 25.54284 | 3.53818 | 38924 ft | 514 kts | 188° |
| 2026-04-22 18:45 | 25.47125 | 3.53877 | 38908 ft | 515 kts | 188° |
| 2026-04-22 18:46 | 25.39869 | 3.53937 | 38904 ft | 517 kts | 188° |
| 2026-04-22 18:46 | 25.32676 | 3.54002 | 38929 ft | 516 kts | 189° |
| 2026-04-22 18:47 | 25.25410 | 3.54061 | 38931 ft | 517 kts | 188° |
| 2026-04-22 18:47 | 25.18195 | 3.54123 | 38941 ft | 516 kts | 188° |
| 2026-04-22 18:48 | 25.10997 | 3.54186 | 38936 ft | 516 kts | 189° |
| 2026-04-22 18:48 | 25.03778 | 3.54246 | 38935 ft | 517 kts | 189° |
| 2026-04-22 18:49 | 24.96566 | 3.54304 | 38932 ft | 518 kts | 189° |
| 2026-04-22 18:49 | 24.89354 | 3.54367 | 38950 ft | 516 kts | 189° |
| 2026-04-22 18:50 | 24.82184 | 3.54427 | 38945 ft | 518 kts | 189° |
| 2026-04-22 18:50 | 24.74953 | 3.54487 | 38947 ft | 520 kts | 189° |
| 2026-04-22 18:51 | 24.67665 | 3.54549 | 38953 ft | 520 kts | 189° |
| 2026-04-22 18:51 | 24.60438 | 3.54608 | 38947 ft | 520 kts | 189° |
| 2026-04-22 18:52 | 24.53168 | 3.54669 | 38958 ft | 521 kts | 190° |
| 2026-04-22 18:52 | 24.45894 | 3.54731 | 38952 ft | 520 kts | 190° |
| 2026-04-22 18:53 | 24.38621 | 3.54792 | 38953 ft | 520 kts | 190° |
| 2026-04-22 18:53 | 24.31384 | 3.54853 | 38950 ft | 520 kts | 190° |
| 2026-04-22 18:54 | 24.24100 | 3.54912 | 38947 ft | 522 kts | 191° |
| 2026-04-22 18:54 | 24.16816 | 3.54975 | 38943 ft | 521 kts | 191° |
| 2026-04-22 18:55 | 24.09601 | 3.55032 | 38942 ft | 522 kts | 191° |
| 2026-04-22 18:55 | 24.02323 | 3.55093 | 38933 ft | 522 kts | 191° |
| 2026-04-22 18:56 | 23.95038 | 3.55151 | 38936 ft | 523 kts | 191° |
| 2026-04-22 18:56 | 23.87740 | 3.55212 | 38936 ft | 523 kts | 191° |
| 2026-04-22 18:57 | 23.80419 | 3.55273 | 38933 ft | 524 kts | 191° |
| 2026-04-22 18:57 | 23.73181 | 3.55336 | 38936 ft | 520 kts | 191° |
| 2026-04-22 18:58 | 23.65893 | 3.55395 | 38933 ft | 520 kts | 191° |
| 2026-04-22 18:58 | 23.58633 | 3.55452 | 38936 ft | 522 kts | 191° |
| 2026-04-22 18:59 | 23.51302 | 3.55515 | 38936 ft | 520 kts | 191° |
| 2026-04-22 18:59 | 23.44053 | 3.55572 | 38938 ft | 521 kts | 191° |
| 2026-04-22 19:00 | 23.36820 | 3.55631 | 38937 ft | 521 kts | 191° |
| 2026-04-22 19:00 | 23.29562 | 3.55692 | 38937 ft | 520 kts | 191° |
| 2026-04-22 19:01 | 23.22330 | 3.55752 | 38932 ft | 519 kts | 191° |
| 2026-04-22 19:01 | 23.15096 | 3.55811 | 38931 ft | 519 kts | 191° |
| 2026-04-22 19:02 | 23.07865 | 3.55871 | 38933 ft | 518 kts | 192° |
| 2026-04-22 19:02 | 23.00595 | 3.55931 | 38928 ft | 516 kts | 191° |
| 2026-04-22 19:03 | 22.93311 | 3.55986 | 38924 ft | 518 kts | 191° |
| 2026-04-22 19:03 | 22.86094 | 3.56047 | 38924 ft | 518 kts | 192° |
| 2026-04-22 19:04 | 22.78925 | 3.56108 | 38927 ft | 517 kts | 192° |
| 2026-04-22 19:04 | 22.71718 | 3.56165 | 38924 ft | 518 kts | 192° |
| 2026-04-22 19:05 | 22.64454 | 3.56223 | 38927 ft | 517 kts | 192° |
| 2026-04-22 19:05 | 22.57269 | 3.56280 | 38925 ft | 516 kts | 192° |
| 2026-04-22 19:06 | 22.50076 | 3.56339 | 38924 ft | 516 kts | 192° |
| 2026-04-22 19:07 | 22.39294 | 3.56428 | 38929 ft | 515 kts | 192° |
| 2026-04-22 19:07 | 22.32111 | 3.56482 | 38931 ft | 517 kts | 192° |
| 2026-04-22 19:08 | 22.24952 | 3.56544 | 38936 ft | 514 kts | 192° |
| 2026-04-22 19:08 | 22.17778 | 3.56602 | 38935 ft | 513 kts | 192° |
| 2026-04-22 19:09 | 22.10605 | 3.56657 | 38938 ft | 513 kts | 193° |
| 2026-04-22 19:09 | 22.03434 | 3.56714 | 38940 ft | 512 kts | 193° |
| 2026-04-22 19:10 | 21.96293 | 3.56769 | 38941 ft | 514 kts | 193° |
| 2026-04-22 19:10 | 21.89092 | 3.56823 | 38938 ft | 515 kts | 193° |
| 2026-04-22 19:11 | 21.81899 | 3.56882 | 38938 ft | 511 kts | 192° |
| 2026-04-22 19:11 | 21.74737 | 3.56938 | 38941 ft | 512 kts | 193° |
| 2026-04-22 19:12 | 21.67637 | 3.56934 | 38940 ft | 510 kts | 193° |
| 2026-04-22 19:12 | 21.60438 | 3.56867 | 38943 ft | 509 kts | 193° |
| 2026-04-22 19:13 | 21.53372 | 3.56801 | 38944 ft | 507 kts | 193° |
| 2026-04-22 19:13 | 21.46296 | 3.56740 | 38943 ft | 508 kts | 193° |
| 2026-04-22 19:14 | 21.39185 | 3.56680 | 38946 ft | 507 kts | 193° |
| 2026-04-22 19:14 | 21.32115 | 3.56623 | 38944 ft | 506 kts | 193° |
| 2026-04-22 19:15 | 21.26230 | 3.56577 | 38947 ft | 506 kts | 193° |
| 2026-04-22 19:15 | 21.17915 | 3.56507 | 38949 ft | 506 kts | 193° |
| 2026-04-22 19:16 | 21.10911 | 3.56452 | 38949 ft | 506 kts | 193° |
| 2026-04-22 19:16 | 21.03846 | 3.56393 | 38947 ft | 504 kts | 193° |
| 2026-04-22 19:17 | 20.96785 | 3.56337 | 38952 ft | 505 kts | 193° |
| 2026-04-22 19:17 | 20.89754 | 3.56278 | 38953 ft | 505 kts | 193° |
| 2026-04-22 19:18 | 20.82701 | 3.56220 | 38956 ft | 504 kts | 193° |
| 2026-04-22 19:18 | 20.75687 | 3.56165 | 38957 ft | 506 kts | 193° |
| 2026-04-22 19:19 | 20.68617 | 3.56107 | 38961 ft | 505 kts | 193° |
| 2026-04-22 19:19 | 20.61610 | 3.56052 | 38968 ft | 504 kts | 193° |
| 2026-04-22 19:20 | 20.54570 | 3.55994 | 38972 ft | 505 kts | 192° |
| 2026-04-22 19:20 | 20.47498 | 3.55937 | 38979 ft | 504 kts | 192° |
| 2026-04-22 19:21 | 20.40519 | 3.55884 | 38982 ft | 502 kts | 193° |
| 2026-04-22 19:21 | 20.33464 | 3.55823 | 38984 ft | 505 kts | 192° |
| 2026-04-22 19:22 | 20.26431 | 3.55767 | 38986 ft | 504 kts | 192° |
| 2026-04-22 19:22 | 20.18208 | 3.55701 | 38984 ft | 505 kts | 192° |
| 2026-04-22 19:23 | 20.12280 | 3.55655 | 38978 ft | 505 kts | 192° |
| 2026-04-22 19:23 | 20.05245 | 3.55599 | 38969 ft | 506 kts | 192° |
| 2026-04-22 19:24 | 19.98207 | 3.55539 | 38960 ft | 506 kts | 192° |
| 2026-04-22 19:24 | 19.91090 | 3.55484 | 38950 ft | 505 kts | 192° |
| 2026-04-22 19:25 | 19.84055 | 3.55428 | 38936 ft | 503 kts | 192° |
| 2026-04-22 19:25 | 19.77075 | 3.55373 | 38928 ft | 504 kts | 192° |
| 2026-04-22 19:26 | 19.70037 | 3.55315 | 38914 ft | 504 kts | 192° |
| 2026-04-22 19:26 | 19.63004 | 3.55258 | 38913 ft | 503 kts | 192° |
| 2026-04-22 19:27 | 19.56006 | 3.55204 | 38909 ft | 503 kts | 192° |
| 2026-04-22 19:27 | 19.48943 | 3.55145 | 38904 ft | 502 kts | 191° |
| 2026-04-22 19:28 | 19.41994 | 3.55094 | 38901 ft | 500 kts | 192° |
| 2026-04-22 19:28 | 19.35028 | 3.55037 | 38895 ft | 500 kts | 191° |
| 2026-04-22 19:29 | 19.28019 | 3.54977 | 38891 ft | 499 kts | 191° |
| 2026-04-22 19:29 | 19.21072 | 3.54924 | 38881 ft | 499 kts | 191° |
| 2026-04-22 19:30 | 19.15264 | 3.54878 | 38882 ft | 499 kts | 191° |
| 2026-04-22 19:30 | 19.07161 | 3.54809 | 38878 ft | 499 kts | 191° |
| 2026-04-22 19:31 | 19.00195 | 3.54751 | 38871 ft | 499 kts | 191° |
| 2026-04-22 19:31 | 18.93270 | 3.54641 | 38869 ft | 496 kts | 191° |
| 2026-04-22 19:32 | 18.86334 | 3.54505 | 38865 ft | 496 kts | 192° |
| 2026-04-22 19:32 | 18.79442 | 3.54371 | 38868 ft | 495 kts | 191° |
| 2026-04-22 19:33 | 18.72533 | 3.54236 | 38864 ft | 498 kts | 191° |
| 2026-04-22 19:33 | 18.65589 | 3.54102 | 38863 ft | 497 kts | 191° |
| 2026-04-22 19:34 | 18.58598 | 3.53972 | 38865 ft | 497 kts | 191° |
| 2026-04-22 19:34 | 18.51666 | 3.53839 | 38864 ft | 499 kts | 191° |
| 2026-04-22 19:35 | 18.44693 | 3.53707 | 38865 ft | 498 kts | 191° |
| 2026-04-22 19:35 | 18.37734 | 3.53576 | 38865 ft | 498 kts | 191° |
| 2026-04-22 19:36 | 18.30805 | 3.53442 | 38863 ft | 499 kts | 191° |
| 2026-04-22 19:36 | 18.23855 | 3.53315 | 38864 ft | 497 kts | 191° |
| 2026-04-22 19:37 | 18.16913 | 3.53182 | 38864 ft | 498 kts | 191° |
| 2026-04-22 19:37 | 18.09960 | 3.53048 | 38864 ft | 499 kts | 191° |
| 2026-04-22 19:38 | 18.02986 | 3.52917 | 38867 ft | 500 kts | 191° |
| 2026-04-22 19:38 | 17.96018 | 3.52790 | 38869 ft | 498 kts | 191° |
| 2026-04-22 19:39 | 17.87927 | 3.52636 | 38867 ft | 498 kts | 191° |
| 2026-04-22 19:39 | 17.80979 | 3.52504 | 38868 ft | 499 kts | 190° |
| 2026-04-22 19:40 | 17.74011 | 3.52373 | 38871 ft | 498 kts | 190° |
| 2026-04-22 19:40 | 17.68238 | 3.52264 | 38871 ft | 498 kts | 190° |
| 2026-04-22 19:41 | 17.61261 | 3.52132 | 38872 ft | 499 kts | 191° |
| 2026-04-22 19:41 | 17.54321 | 3.52004 | 38872 ft | 500 kts | 190° |
| 2026-04-22 19:42 | 17.46168 | 3.51847 | 38873 ft | 499 kts | 190° |
| 2026-04-22 19:42 | 17.39212 | 3.51718 | 38873 ft | 497 kts | 190° |
| 2026-04-22 19:43 | 17.29982 | 3.51539 | 38873 ft | 499 kts | 190° |
| 2026-04-22 19:43 | 17.23009 | 3.51415 | 38873 ft | 498 kts | 190° |
| 2026-04-22 19:44 | 17.16076 | 3.51295 | 38872 ft | 497 kts | 190° |
| 2026-04-22 19:44 | 17.07975 | 3.51145 | 38871 ft | 498 kts | 190° |
| 2026-04-22 19:45 | 17.02184 | 3.51037 | 38869 ft | 498 kts | 190° |
| 2026-04-22 19:45 | 16.94033 | 3.50888 | 38864 ft | 499 kts | 190° |
| 2026-04-22 19:46 | 16.87083 | 3.50760 | 38860 ft | 497 kts | 189° |
| 2026-04-22 19:46 | 16.80152 | 3.50631 | 38855 ft | 496 kts | 190° |
| 2026-04-22 19:47 | 16.73212 | 3.50506 | 38856 ft | 494 kts | 189° |
| 2026-04-22 19:47 | 16.66326 | 3.50378 | 38846 ft | 495 kts | 190° |
| 2026-04-22 19:48 | 16.59430 | 3.50250 | 38844 ft | 494 kts | 189° |
| 2026-04-22 19:48 | 16.53660 | 3.50144 | 38836 ft | 494 kts | 189° |
| 2026-04-22 19:49 | 16.45677 | 3.49997 | 38831 ft | 492 kts | 189° |
| 2026-04-22 19:49 | 16.38792 | 3.49870 | 38828 ft | 492 kts | 189° |
| 2026-04-22 19:50 | 16.33101 | 3.49764 | 38830 ft | 492 kts | 189° |
| 2026-04-22 19:50 | 16.25137 | 3.49616 | 38830 ft | 489 kts | 189° |
| 2026-04-22 19:51 | 16.18330 | 3.49498 | 38829 ft | 488 kts | 189° |
| 2026-04-22 19:51 | 16.12664 | 3.49397 | 38824 ft | 488 kts | 189° |
| 2026-04-22 19:52 | 16.04655 | 3.49247 | 38818 ft | 489 kts | 188° |
| 2026-04-22 19:52 | 15.98928 | 3.49143 | 38814 ft | 487 kts | 188° |
| 2026-04-22 19:53 | 15.90977 | 3.48998 | 38816 ft | 488 kts | 188° |
| 2026-04-22 19:53 | 15.84112 | 3.48871 | 38821 ft | 489 kts | 188° |
| 2026-04-22 19:54 | 15.77312 | 3.48747 | 38821 ft | 487 kts | 188° |
| 2026-04-22 19:54 | 15.71615 | 3.48640 | 38817 ft | 487 kts | 188° |
| 2026-04-22 19:55 | 15.63709 | 3.48496 | 38817 ft | 488 kts | 188° |
| 2026-04-22 19:55 | 15.56897 | 3.48371 | 38812 ft | 487 kts | 188° |
| 2026-04-22 19:56 | 15.51232 | 3.48268 | 38811 ft | 487 kts | 188° |
| 2026-04-22 19:56 | 15.44449 | 3.48141 | 38807 ft | 487 kts | 187° |
| 2026-04-22 19:57 | 15.37622 | 3.48018 | 38803 ft | 489 kts | 188° |
| 2026-04-22 19:57 | 15.29595 | 3.47870 | 38800 ft | 488 kts | 187° |
| 2026-04-22 19:58 | 15.22796 | 3.47747 | 38794 ft | 490 kts | 187° |
| 2026-04-22 19:58 | 15.15947 | 3.47622 | 38789 ft | 490 kts | 187° |
| 2026-04-22 20:00 | 14.92045 | 3.47187 | 38795 ft | 488 kts | 187° |
| 2026-04-22 20:01 | 14.85229 | 3.47061 | 38793 ft | 489 kts | 187° |
| 2026-04-22 20:01 | 14.79556 | 3.46960 | 38797 ft | 489 kts | 187° |
| 2026-04-22 20:02 | 14.72692 | 3.46834 | 38791 ft | 489 kts | 187° |
| 2026-04-22 20:02 | 14.64773 | 3.46687 | 38797 ft | 488 kts | 186° |
| 2026-04-22 20:03 | 14.57904 | 3.46562 | 38795 ft | 489 kts | 187° |
| 2026-04-22 20:03 | 14.51080 | 3.46439 | 38799 ft | 488 kts | 186° |
| 2026-04-22 20:04 | 14.44285 | 3.46313 | 38800 ft | 488 kts | 186° |
| 2026-04-22 20:04 | 14.37451 | 3.46190 | 38790 ft | 488 kts | 186° |
| 2026-04-22 20:05 | 14.31800 | 3.46082 | 38806 ft | 489 kts | 186° |
| 2026-04-22 20:05 | 14.23830 | 3.45941 | 38804 ft | 488 kts | 186° |
| 2026-04-22 20:06 | 14.16977 | 3.45819 | 38808 ft | 489 kts | 186° |
| 2026-04-22 20:06 | 14.10177 | 3.45699 | 38799 ft | 489 kts | 186° |
| 2026-04-22 20:07 | 14.03351 | 3.45576 | 38800 ft | 488 kts | 186° |
| 2026-04-22 20:07 | 13.96563 | 3.45451 | 38792 ft | 487 kts | 186° |
| 2026-04-22 20:08 | 13.89780 | 3.45330 | 38793 ft | 489 kts | 186° |
| 2026-04-22 20:08 | 13.84050 | 3.45223 | 38784 ft | 490 kts | 186° |
| 2026-04-22 20:09 | 13.76103 | 3.45082 | 38783 ft | 490 kts | 186° |
| 2026-04-22 20:09 | 13.69235 | 3.44955 | 38780 ft | 490 kts | 186° |
| 2026-04-22 20:10 | 13.62399 | 3.44832 | 38779 ft | 490 kts | 186° |
| 2026-04-22 20:10 | 13.55568 | 3.44704 | 38783 ft | 490 kts | 186° |
| 2026-04-22 20:11 | 13.48660 | 3.44576 | 38775 ft | 491 kts | 185° |
| 2026-04-22 20:11 | 13.41815 | 3.44447 | 38775 ft | 492 kts | 185° |
| 2026-04-22 20:12 | 13.34949 | 3.44311 | 38770 ft | 492 kts | 186° |
| 2026-04-22 20:12 | 13.29194 | 3.44199 | 38770 ft | 493 kts | 186° |
| 2026-04-22 20:13 | 13.21124 | 3.44229 | 38767 ft | 496 kts | 183° |
| 2026-04-22 20:13 | 13.14215 | 3.44367 | 38766 ft | 496 kts | 183° |
| 2026-04-22 20:14 | 13.08486 | 3.44481 | 38763 ft | 496 kts | 183° |
| 2026-04-22 20:14 | 13.01489 | 3.44617 | 38759 ft | 497 kts | 183° |
| 2026-04-22 20:15 | 12.93335 | 3.44770 | 38754 ft | 497 kts | 183° |
| 2026-04-22 20:15 | 12.86439 | 3.44903 | 38754 ft | 496 kts | 183° |
| 2026-04-22 20:16 | 12.80662 | 3.45012 | 38753 ft | 496 kts | 182° |
| 2026-04-22 20:16 | 12.72588 | 3.45166 | 38752 ft | 494 kts | 183° |
| 2026-04-22 20:17 | 12.66846 | 3.45273 | 38754 ft | 494 kts | 182° |
| 2026-04-22 20:17 | 12.58789 | 3.45424 | 38752 ft | 495 kts | 182° |
| 2026-04-22 20:18 | 12.51925 | 3.45553 | 38753 ft | 493 kts | 182° |
| 2026-04-22 20:18 | 12.45007 | 3.45684 | 38752 ft | 493 kts | 182° |
| 2026-04-22 20:19 | 12.38129 | 3.45808 | 38752 ft | 493 kts | 182° |
| 2026-04-22 20:19 | 12.31240 | 3.45938 | 38750 ft | 492 kts | 182° |
| 2026-04-22 20:20 | 12.24405 | 3.46069 | 38745 ft | 492 kts | 182° |
| 2026-04-22 20:20 | 12.17554 | 3.46197 | 38748 ft | 491 kts | 182° |
| 2026-04-22 20:21 | 12.10659 | 3.46326 | 38749 ft | 491 kts | 182° |
| 2026-04-22 20:21 | 12.03790 | 3.46455 | 38745 ft | 490 kts | 182° |
| 2026-04-22 20:22 | 11.96895 | 3.46580 | 38751 ft | 490 kts | 182° |
| 2026-04-22 20:22 | 11.90039 | 3.46708 | 38746 ft | 490 kts | 182° |
| 2026-04-22 20:23 | 11.83226 | 3.46835 | 38750 ft | 491 kts | 182° |
| 2026-04-22 20:23 | 11.76370 | 3.46962 | 38746 ft | 491 kts | 182° |
| 2026-04-22 20:24 | 11.69504 | 3.47087 | 38747 ft | 491 kts | 182° |
| 2026-04-22 20:24 | 11.62656 | 3.47215 | 38752 ft | 491 kts | 182° |
| 2026-04-22 20:25 | 11.55785 | 3.47341 | 38754 ft | 491 kts | 181° |
| 2026-04-22 20:25 | 11.50094 | 3.47447 | 38761 ft | 491 kts | 181° |
| 2026-04-22 20:26 | 11.42084 | 3.47593 | 38762 ft | 491 kts | 181° |
| 2026-04-22 20:26 | 11.35205 | 3.47720 | 38767 ft | 491 kts | 182° |
| 2026-04-22 20:27 | 11.28221 | 3.47849 | 38772 ft | 491 kts | 181° |
| 2026-04-22 20:27 | 11.21255 | 3.47976 | 38775 ft | 491 kts | 181° |
| 2026-04-22 20:28 | 11.14406 | 3.48101 | 38776 ft | 491 kts | 181° |
| 2026-04-22 20:28 | 11.07570 | 3.48224 | 38777 ft | 491 kts | 181° |
| 2026-04-22 20:29 | 11.00715 | 3.48349 | 38778 ft | 491 kts | 181° |
| 2026-04-22 20:29 | 10.93879 | 3.48489 | 38781 ft | 491 kts | 181° |
| 2026-04-22 20:30 | 10.86996 | 3.48636 | 38782 ft | 490 kts | 181° |
| 2026-04-22 20:30 | 10.81255 | 3.48757 | 38784 ft | 490 kts | 181° |
| 2026-04-22 20:31 | 10.73289 | 3.48922 | 38787 ft | 489 kts | 181° |
| 2026-04-22 20:31 | 10.66480 | 3.49063 | 38785 ft | 488 kts | 181° |
| 2026-04-22 20:32 | 10.60744 | 3.49180 | 38787 ft | 487 kts | 181° |
| 2026-04-22 20:32 | 10.52752 | 3.49345 | 38785 ft | 486 kts | 181° |
| 2026-04-22 20:33 | 10.46007 | 3.49484 | 38790 ft | 485 kts | 181° |
| 2026-04-22 20:33 | 10.39208 | 3.49623 | 38791 ft | 484 kts | 181° |
| 2026-04-22 20:34 | 10.32394 | 3.49763 | 38797 ft | 483 kts | 181° |
| 2026-04-22 20:34 | 10.26767 | 3.49878 | 38802 ft | 483 kts | 181° |
| 2026-04-22 20:35 | 10.18953 | 3.50039 | 38807 ft | 482 kts | 181° |
| 2026-04-22 20:35 | 10.12224 | 3.50176 | 38794 ft | 481 kts | 181° |
| 2026-04-22 20:36 | 10.05487 | 3.50313 | 38795 ft | 481 kts | 181° |
| 2026-04-22 20:36 | 9.98801 | 3.50449 | 38789 ft | 480 kts | 181° |
| 2026-04-22 20:37 | 9.93222 | 3.50561 | 38783 ft | 479 kts | 181° |
| 2026-04-22 20:37 | 9.85388 | 3.50713 | 38788 ft | 479 kts | 181° |
| 2026-04-22 20:38 | 9.78728 | 3.50807 | 38784 ft | 479 kts | 181° |
| 2026-04-22 20:38 | 9.73138 | 3.50882 | 38793 ft | 477 kts | 181° |
| 2026-04-22 20:39 | 9.65365 | 3.50987 | 38793 ft | 477 kts | 181° |
| 2026-04-22 20:39 | 9.58687 | 3.51077 | 38803 ft | 477 kts | 181° |
| 2026-04-22 20:40 | 9.52046 | 3.51171 | 38805 ft | 476 kts | 181° |
| 2026-04-22 20:40 | 9.46481 | 3.51105 | 38806 ft | 475 kts | 184° |
| 2026-04-22 20:41 | 9.38751 | 3.50598 | 38808 ft | 474 kts | 185° |
| 2026-04-22 20:41 | 9.33249 | 3.50220 | 38811 ft | 474 kts | 185° |
| 2026-04-22 20:42 | 9.26653 | 3.49766 | 38815 ft | 474 kts | 185° |
| 2026-04-22 20:42 | 9.19002 | 3.49244 | 38818 ft | 473 kts | 185° |
| 2026-04-22 20:43 | 9.12376 | 3.48790 | 38823 ft | 474 kts | 185° |
| 2026-04-22 20:43 | 9.05707 | 3.48335 | 38830 ft | 472 kts | 185° |
| 2026-04-22 20:44 | 9.00121 | 3.47954 | 38833 ft | 472 kts | 185° |
| 2026-04-22 20:44 | 8.92375 | 3.47425 | 38835 ft | 472 kts | 185° |
| 2026-04-22 20:45 | 8.85745 | 3.46973 | 38834 ft | 472 kts | 185° |
| 2026-04-22 20:45 | 8.80267 | 3.46597 | 38835 ft | 472 kts | 184° |
| 2026-04-22 20:46 | 8.69262 | 3.45846 | 38835 ft | 472 kts | 184° |
| 2026-04-22 20:46 | 8.62622 | 3.45391 | 38834 ft | 473 kts | 184° |
| 2026-04-22 20:47 | 8.56075 | 3.44944 | 38832 ft | 473 kts | 184° |
| 2026-04-22 20:47 | 8.49490 | 3.44507 | 38831 ft | 472 kts | 184° |
| 2026-04-22 20:48 | 8.43947 | 3.44147 | 38828 ft | 473 kts | 184° |
| 2026-04-22 20:48 | 8.37261 | 3.43708 | 38820 ft | 474 kts | 184° |
| 2026-04-22 20:49 | 8.29444 | 3.43195 | 38812 ft | 473 kts | 184° |
| 2026-04-22 20:49 | 8.22867 | 3.42752 | 38804 ft | 474 kts | 184° |
| 2026-04-22 20:50 | 8.16251 | 3.42302 | 38803 ft | 475 kts | 184° |
| 2026-04-22 20:50 | 8.09644 | 3.41852 | 38798 ft | 474 kts | 184° |
| 2026-04-22 20:51 | 8.03002 | 3.41400 | 38799 ft | 474 kts | 184° |
| 2026-04-22 20:51 | 7.96296 | 3.40943 | 38795 ft | 475 kts | 184° |
| 2026-04-22 20:52 | 7.89662 | 3.40489 | 38790 ft | 475 kts | 184° |
| 2026-04-22 20:52 | 7.84114 | 3.40111 | 38789 ft | 475 kts | 184° |
| 2026-04-22 20:53 | 7.76415 | 3.39502 | 38783 ft | 475 kts | 185° |
| 2026-04-22 20:53 | 7.69808 | 3.38788 | 38781 ft | 477 kts | 186° |
| 2026-04-22 20:54 | 7.63096 | 3.38051 | 38777 ft | 477 kts | 186° |
| 2026-04-22 20:54 | 7.56487 | 3.37328 | 38776 ft | 477 kts | 186° |
| 2026-04-22 20:55 | 7.49834 | 3.36601 | 38771 ft | 476 kts | 186° |
| 2026-04-22 20:55 | 7.43205 | 3.35880 | 38773 ft | 477 kts | 185° |
| 2026-04-22 20:56 | 7.36560 | 3.35155 | 38770 ft | 477 kts | 185° |
| 2026-04-22 20:56 | 7.29911 | 3.34432 | 38767 ft | 478 kts | 185° |
| 2026-04-22 20:57 | 7.23272 | 3.33707 | 38763 ft | 477 kts | 185° |
| 2026-04-22 20:57 | 7.16559 | 3.32975 | 38764 ft | 478 kts | 185° |
| 2026-04-22 20:58 | 7.09947 | 3.32253 | 38764 ft | 478 kts | 185° |
| 2026-04-22 20:58 | 7.04411 | 3.31883 | 38762 ft | 478 kts | 181° |
| 2026-04-22 20:59 | 6.96605 | 3.31567 | 38765 ft | 479 kts | 181° |
| 2026-04-22 20:59 | 6.89882 | 3.31278 | 38765 ft | 478 kts | 181° |
| 2026-04-22 21:00 | 6.84335 | 3.31031 | 38769 ft | 478 kts | 181° |
| 2026-04-22 21:00 | 6.76541 | 3.31029 | 38767 ft | 478 kts | 178° |
| 2026-04-22 21:01 | 6.69904 | 3.31174 | 38771 ft | 477 kts | 178° |
| 2026-04-22 21:01 | 6.63117 | 3.31274 | 38771 ft | 477 kts | 178° |
| 2026-04-22 21:02 | 6.56435 | 3.31340 | 38777 ft | 477 kts | 178° |
| 2026-04-22 21:02 | 6.49733 | 3.31386 | 38778 ft | 477 kts | 178° |
| 2026-04-22 21:03 | 6.43049 | 3.31430 | 38781 ft | 477 kts | 178° |
| 2026-04-22 21:03 | 6.37500 | 3.31466 | 38778 ft | 477 kts | 178° |
| 2026-04-22 21:04 | 6.29729 | 3.31507 | 38781 ft | 477 kts | 179° |
| 2026-04-22 21:04 | 6.23108 | 3.31544 | 38785 ft | 477 kts | 178° |
| 2026-04-22 21:05 | 6.16415 | 3.31573 | 38786 ft | 477 kts | 178° |
| 2026-04-22 21:05 | 6.09789 | 3.31601 | 38789 ft | 477 kts | 179° |
| 2026-04-22 21:06 | 6.03132 | 3.31625 | 38794 ft | 477 kts | 178° |
| 2026-04-22 21:06 | 5.97568 | 3.31645 | 38796 ft | 478 kts | 178° |
| 2026-04-22 21:07 | 5.90917 | 3.31669 | 38795 ft | 478 kts | 178° |
| 2026-04-22 21:07 | 5.83151 | 3.31695 | 38795 ft | 478 kts | 178° |
| 2026-04-22 21:08 | 5.77573 | 3.31716 | 38796 ft | 478 kts | 178° |
| 2026-04-22 21:08 | 5.69771 | 3.31742 | 38796 ft | 478 kts | 178° |
| 2026-04-22 21:09 | 5.63111 | 3.31764 | 38795 ft | 478 kts | 178° |
| 2026-04-22 21:09 | 5.56454 | 3.31779 | 38794 ft | 478 kts | 178° |
| 2026-04-22 21:10 | 5.49797 | 3.31787 | 38795 ft | 477 kts | 178° |
| 2026-04-22 21:10 | 5.43135 | 3.31799 | 38795 ft | 478 kts | 178° |
| 2026-04-22 21:11 | 5.37582 | 3.31808 | 38794 ft | 478 kts | 178° |
| 2026-04-22 21:11 | 5.29792 | 3.31829 | 38795 ft | 479 kts | 178° |
| 2026-04-22 21:12 | 5.23090 | 3.31850 | 38795 ft | 479 kts | 178° |
| 2026-04-22 21:12 | 5.16430 | 3.31867 | 38794 ft | 479 kts | 178° |
| 2026-04-22 21:13 | 5.10802 | 3.31880 | 38794 ft | 478 kts | 178° |
| 2026-04-22 21:13 | 5.02998 | 3.31892 | 38795 ft | 479 kts | 178° |
| 2026-04-22 21:14 | 4.96290 | 3.31910 | 38796 ft | 478 kts | 178° |
| 2026-04-22 21:14 | 4.89641 | 3.31928 | 38797 ft | 479 kts | 178° |
| 2026-04-22 21:15 | 4.82942 | 3.31964 | 38797 ft | 480 kts | 178° |
| 2026-04-22 21:15 | 4.76222 | 3.32004 | 38796 ft | 479 kts | 178° |
| 2026-04-22 21:16 | 4.69549 | 3.32053 | 38797 ft | 479 kts | 178° |
| 2026-04-22 21:16 | 4.63983 | 3.32105 | 38796 ft | 480 kts | 178° |
| 2026-04-22 21:17 | 4.56192 | 3.32190 | 38797 ft | 479 kts | 178° |
| 2026-04-22 21:17 | 4.49452 | 3.32275 | 38797 ft | 480 kts | 178° |
| 2026-04-22 21:18 | 4.42703 | 3.32363 | 38795 ft | 480 kts | 178° |
| 2026-04-22 21:18 | 4.37115 | 3.32444 | 38796 ft | 479 kts | 178° |
| 2026-04-22 21:19 | 4.29298 | 3.32569 | 38797 ft | 480 kts | 178° |
| 2026-04-22 21:19 | 4.22591 | 3.32687 | 38797 ft | 480 kts | 178° |
| 2026-04-22 21:20 | 4.15895 | 3.32811 | 38797 ft | 480 kts | 178° |
| 2026-04-22 21:20 | 4.09158 | 3.32942 | 38799 ft | 481 kts | 178° |
| 2026-04-22 21:21 | 4.02459 | 3.33081 | 38794 ft | 481 kts | 178° |
| 2026-04-22 21:21 | 3.95771 | 3.33224 | 38795 ft | 481 kts | 178° |
| 2026-04-22 21:22 | 3.89007 | 3.33375 | 38789 ft | 481 kts | 178° |
| 2026-04-22 21:22 | 3.82296 | 3.33515 | 38793 ft | 481 kts | 178° |
| 2026-04-22 21:23 | 3.75594 | 3.33655 | 38794 ft | 481 kts | 178° |